sensor_id;sensor_type;location;lat;lon;timestamp;P1;durP1;ratioP1;P2;durP2;ratioP2
19664;SDS011;9980;51.020;7.772;2023-06-10T00:00:43;8.77;;;7.87;;
19664;SDS011;9980;51.020;7.772;2023-06-10T00:03:10;8.93;;;8.10;;
19664;SDS011;9980;51.020;7.772;2023-06-10T00:05:38;8.20;;;7.50;;
19664;SDS011;9980;51.020;7.772;2023-06-10T00:08:06;8.03;;;7.37;;
19664;SDS011;9980;51.020;7.772;2023-06-10T00:10:34;8.57;;;7.87;;
19664;SDS011;9980;51.020;7.772;2023-06-10T00:13:03;9.03;;;8.23;;
19664;SDS011;9980;51.020;7.772;2023-06-10T00:15:34;9.57;;;8.40;;
19664;SDS011;9980;51.020;7.772;2023-06-10T00:18:02;8.73;;;8.03;;
19664;SDS011;9980;51.020;7.772;2023-06-10T00:20:30;9.83;;;8.80;;
19664;SDS011;9980;51.020;7.772;2023-06-10T00:22:58;9.57;;;8.63;;
19664;SDS011;9980;51.020;7.772;2023-06-10T00:25:27;9.17;;;8.30;;
19664;SDS011;9980;51.020;7.772;2023-06-10T00:27:55;8.87;;;7.77;;
19664;SDS011;9980;51.020;7.772;2023-06-10T00:30:22;10.40;;;9.10;;
19664;SDS011;9980;51.020;7.772;2023-06-10T00:32:49;9.00;;;8.20;;
19664;SDS011;9980;51.020;7.772;2023-06-10T00:35:16;7.90;;;7.30;;
19664;SDS011;9980;51.020;7.772;2023-06-10T00:37:43;9.10;;;8.30;;
19664;SDS011;9980;51.020;7.772;2023-06-10T00:40:10;10.10;;;8.30;;
19664;SDS011;9980;51.020;7.772;2023-06-10T00:42:37;10.40;;;9.40;;
19664;SDS011;9980;51.020;7.772;2023-06-10T00:45:05;9.03;;;8.30;;
19664;SDS011;9980;51.020;7.772;2023-06-10T00:47:35;8.80;;;8.10;;
19664;SDS011;9980;51.020;7.772;2023-06-10T00:50:02;9.57;;;8.67;;
19664;SDS011;9980;51.020;7.772;2023-06-10T00:52:31;7.33;;;6.73;;
19664;SDS011;9980;51.020;7.772;2023-06-10T00:55:00;10.13;;;9.13;;
19664;SDS011;9980;51.020;7.772;2023-06-10T00:57:28;9.00;;;8.20;;
19664;SDS011;9980;51.020;7.772;2023-06-10T00:59:55;8.97;;;8.07;;
19664;SDS011;9980;51.020;7.772;2023-06-10T01:02:23;8.70;;;7.90;;
19664;SDS011;9980;51.020;7.772;2023-06-10T01:04:51;8.83;;;8.13;;
19664;SDS011;9980;51.020;7.772;2023-06-10T01:07:28;8.77;;;7.87;;
19664;SDS011;9980;51.020;7.772;2023-06-10T01:10:07;8.87;;;8.13;;
19664;SDS011;9980;51.020;7.772;2023-06-10T01:12:58;10.13;;;7.60;;
19664;SDS011;9980;51.020;7.772;2023-06-10T01:15:33;7.53;;;6.83;;
19664;SDS011;9980;51.020;7.772;2023-06-10T01:18:03;9.80;;;8.93;;
19664;SDS011;9980;51.020;7.772;2023-06-10T01:20:35;7.00;;;6.30;;
19664;SDS011;9980;51.020;7.772;2023-06-10T01:23:07;9.87;;;8.80;;
19664;SDS011;9980;51.020;7.772;2023-06-10T01:25:40;8.17;;;7.47;;
19664;SDS011;9980;51.020;7.772;2023-06-10T01:28:27;7.77;;;7.07;;
19664;SDS011;9980;51.020;7.772;2023-06-10T01:31:13;8.73;;;7.87;;
19664;SDS011;9980;51.020;7.772;2023-06-10T01:34:00;7.77;;;7.07;;
19664;SDS011;9980;51.020;7.772;2023-06-10T01:36:29;8.97;;;8.17;;
19664;SDS011;9980;51.020;7.772;2023-06-10T01:38:59;9.83;;;8.83;;
19664;SDS011;9980;51.020;7.772;2023-06-10T01:41:28;8.80;;;6.87;;
19664;SDS011;9980;51.020;7.772;2023-06-10T01:43:57;9.07;;;8.17;;
19664;SDS011;9980;51.020;7.772;2023-06-10T01:46:24;9.47;;;8.57;;
19664;SDS011;9980;51.020;7.772;2023-06-10T01:48:51;8.17;;;7.47;;
19664;SDS011;9980;51.020;7.772;2023-06-10T01:51:17;9.13;;;8.23;;
19664;SDS011;9980;51.020;7.772;2023-06-10T01:53:45;9.03;;;8.13;;
19664;SDS011;9980;51.020;7.772;2023-06-10T01:56:12;8.10;;;7.40;;
19664;SDS011;9980;51.020;7.772;2023-06-10T01:58:46;9.77;;;8.83;;
19664;SDS011;9980;51.020;7.772;2023-06-10T02:01:13;7.83;;;7.03;;
19664;SDS011;9980;51.020;7.772;2023-06-10T02:03:40;8.80;;;8.10;;
19664;SDS011;9980;51.020;7.772;2023-06-10T02:06:08;9.33;;;8.53;;
19664;SDS011;9980;51.020;7.772;2023-06-10T02:08:35;10.03;;;9.23;;
19664;SDS011;9980;51.020;7.772;2023-06-10T02:11:02;8.33;;;7.63;;
19664;SDS011;9980;51.020;7.772;2023-06-10T02:13:29;8.47;;;7.67;;
19664;SDS011;9980;51.020;7.772;2023-06-10T02:15:56;12.83;;;8.50;;
19664;SDS011;9980;51.020;7.772;2023-06-10T02:18:27;7.50;;;6.83;;
19664;SDS011;9980;51.020;7.772;2023-06-10T02:20:54;10.93;;;9.83;;
19664;SDS011;9980;51.020;7.772;2023-06-10T02:23:21;8.50;;;7.70;;
19664;SDS011;9980;51.020;7.772;2023-06-10T02:25:48;10.77;;;9.77;;
19664;SDS011;9980;51.020;7.772;2023-06-10T02:28:15;8.90;;;8.10;;
19664;SDS011;9980;51.020;7.772;2023-06-10T02:30:42;11.80;;;9.50;;
19664;SDS011;9980;51.020;7.772;2023-06-10T02:33:09;8.37;;;7.67;;
19664;SDS011;9980;51.020;7.772;2023-06-10T02:35:38;9.87;;;8.87;;
19664;SDS011;9980;51.020;7.772;2023-06-10T02:38:05;8.37;;;7.40;;
19664;SDS011;9980;51.020;7.772;2023-06-10T02:40:34;9.77;;;8.90;;
19664;SDS011;9980;51.020;7.772;2023-06-10T02:43:01;7.77;;;7.07;;
19664;SDS011;9980;51.020;7.772;2023-06-10T02:45:28;6.67;;;6.10;;
19664;SDS011;9980;51.020;7.772;2023-06-10T02:47:57;8.23;;;7.53;;
19664;SDS011;9980;51.020;7.772;2023-06-10T02:50:24;9.73;;;7.63;;
19664;SDS011;9980;51.020;7.772;2023-06-10T02:53:11;6.97;;;6.37;;
19664;SDS011;9980;51.020;7.772;2023-06-10T02:55:43;8.90;;;8.10;;
19664;SDS011;9980;51.020;7.772;2023-06-10T02:58:13;10.67;;;8.13;;
19664;SDS011;9980;51.020;7.772;2023-06-10T03:00:40;9.60;;;8.70;;
19664;SDS011;9980;51.020;7.772;2023-06-10T03:03:10;9.10;;;8.30;;
19664;SDS011;9980;51.020;7.772;2023-06-10T03:05:47;7.60;;;6.90;;
19664;SDS011;9980;51.020;7.772;2023-06-10T03:08:16;8.57;;;7.77;;
19664;SDS011;9980;51.020;7.772;2023-06-10T03:10:43;8.40;;;7.60;;
19664;SDS011;9980;51.020;7.772;2023-06-10T03:13:14;9.37;;;8.57;;
19664;SDS011;9980;51.020;7.772;2023-06-10T03:15:42;7.87;;;7.17;;
19664;SDS011;9980;51.020;7.772;2023-06-10T03:18:12;7.87;;;7.17;;
19664;SDS011;9980;51.020;7.772;2023-06-10T03:20:40;9.10;;;8.30;;
19664;SDS011;9980;51.020;7.772;2023-06-10T03:23:09;8.27;;;7.57;;
19664;SDS011;9980;51.020;7.772;2023-06-10T03:25:36;7.73;;;7.13;;
19664;SDS011;9980;51.020;7.772;2023-06-10T03:28:04;7.40;;;6.80;;
19664;SDS011;9980;51.020;7.772;2023-06-10T03:30:32;8.80;;;8.00;;
19664;SDS011;9980;51.020;7.772;2023-06-10T03:32:59;9.67;;;7.90;;
19664;SDS011;9980;51.020;7.772;2023-06-10T03:35:29;10.50;;;9.60;;
19664;SDS011;9980;51.020;7.772;2023-06-10T03:37:56;8.03;;;7.40;;
19664;SDS011;9980;51.020;7.772;2023-06-10T03:40:23;8.83;;;8.10;;
19664;SDS011;9980;51.020;7.772;2023-06-10T03:42:50;9.20;;;8.40;;
19664;SDS011;9980;51.020;7.772;2023-06-10T03:45:18;8.70;;;7.90;;
19664;SDS011;9980;51.020;7.772;2023-06-10T03:47:46;9.33;;;8.50;;
19664;SDS011;9980;51.020;7.772;2023-06-10T03:50:16;9.37;;;8.57;;
19664;SDS011;9980;51.020;7.772;2023-06-10T03:52:44;9.43;;;8.63;;
19664;SDS011;9980;51.020;7.772;2023-06-10T03:55:13;9.97;;;9.00;;
19664;SDS011;9980;51.020;7.772;2023-06-10T03:57:44;8.33;;;7.63;;
19664;SDS011;9980;51.020;7.772;2023-06-10T04:00:11;9.83;;;9.03;;
19664;SDS011;9980;51.020;7.772;2023-06-10T04:02:42;10.83;;;9.93;;
19664;SDS011;9980;51.020;7.772;2023-06-10T04:05:36;11.10;;;10.10;;
19664;SDS011;9980;51.020;7.772;2023-06-10T04:08:03;11.07;;;10.07;;
19664;SDS011;9980;51.020;7.772;2023-06-10T04:10:31;8.73;;;7.87;;
19664;SDS011;9980;51.020;7.772;2023-06-10T04:12:59;8.73;;;7.93;;
19664;SDS011;9980;51.020;7.772;2023-06-10T04:15:30;10.53;;;9.63;;
19664;SDS011;9980;51.020;7.772;2023-06-10T04:18:05;10.67;;;9.67;;
19664;SDS011;9980;51.020;7.772;2023-06-10T04:20:33;9.03;;;8.27;;
19664;SDS011;9980;51.020;7.772;2023-06-10T04:23:00;10.10;;;9.10;;
19664;SDS011;9980;51.020;7.772;2023-06-10T04:25:28;9.47;;;8.63;;
19664;SDS011;9980;51.020;7.772;2023-06-10T04:27:55;9.97;;;9.17;;
19664;SDS011;9980;51.020;7.772;2023-06-10T04:30:23;10.10;;;9.20;;
19664;SDS011;9980;51.020;7.772;2023-06-10T04:32:50;11.03;;;10.13;;
19664;SDS011;9980;51.020;7.772;2023-06-10T04:35:18;10.57;;;9.67;;
19664;SDS011;9980;51.020;7.772;2023-06-10T04:37:47;11.90;;;10.80;;
19664;SDS011;9980;51.020;7.772;2023-06-10T04:40:14;11.87;;;10.80;;
19664;SDS011;9980;51.020;7.772;2023-06-10T04:42:43;12.03;;;10.83;;
19664;SDS011;9980;51.020;7.772;2023-06-10T04:45:11;12.33;;;10.97;;
19664;SDS011;9980;51.020;7.772;2023-06-10T04:47:39;11.80;;;10.70;;
19664;SDS011;9980;51.020;7.772;2023-06-10T04:50:06;12.27;;;11.07;;
19664;SDS011;9980;51.020;7.772;2023-06-10T04:52:34;11.33;;;10.20;;
19664;SDS011;9980;51.020;7.772;2023-06-10T04:55:01;11.83;;;10.27;;
19664;SDS011;9980;51.020;7.772;2023-06-10T04:57:28;12.17;;;10.83;;
19664;SDS011;9980;51.020;7.772;2023-06-10T04:59:55;12.40;;;11.27;;
19664;SDS011;9980;51.020;7.772;2023-06-10T05:02:23;11.80;;;10.63;;
19664;SDS011;9980;51.020;7.772;2023-06-10T05:04:50;12.20;;;10.90;;
19664;SDS011;9980;51.020;7.772;2023-06-10T05:07:17;12.07;;;10.90;;
19664;SDS011;9980;51.020;7.772;2023-06-10T05:09:44;11.73;;;10.73;;
19664;SDS011;9980;51.020;7.772;2023-06-10T05:12:11;12.00;;;10.70;;
19664;SDS011;9980;51.020;7.772;2023-06-10T05:14:38;11.83;;;10.73;;
19664;SDS011;9980;51.020;7.772;2023-06-10T05:17:05;12.03;;;10.83;;
19664;SDS011;9980;51.020;7.772;2023-06-10T05:19:32;11.77;;;10.67;;
19664;SDS011;9980;51.020;7.772;2023-06-10T05:22:01;12.93;;;10.83;;
19664;SDS011;9980;51.020;7.772;2023-06-10T05:24:29;11.30;;;10.30;;
19664;SDS011;9980;51.020;7.772;2023-06-10T05:26:56;11.33;;;10.33;;
19664;SDS011;9980;51.020;7.772;2023-06-10T05:29:22;11.93;;;10.93;;
19664;SDS011;9980;51.020;7.772;2023-06-10T05:31:49;13.83;;;11.57;;
19664;SDS011;9980;51.020;7.772;2023-06-10T05:34:16;12.00;;;10.93;;
19664;SDS011;9980;51.020;7.772;2023-06-10T05:36:44;12.33;;;11.17;;
19664;SDS011;9980;51.020;7.772;2023-06-10T05:39:11;11.27;;;10.27;;
19664;SDS011;9980;51.020;7.772;2023-06-10T05:41:38;11.30;;;10.30;;
19664;SDS011;9980;51.020;7.772;2023-06-10T05:44:07;10.70;;;9.70;;
19664;SDS011;9980;51.020;7.772;2023-06-10T05:46:36;11.93;;;10.77;;
19664;SDS011;9980;51.020;7.772;2023-06-10T05:49:03;10.17;;;9.33;;
19664;SDS011;9980;51.020;7.772;2023-06-10T05:51:30;11.10;;;9.87;;
19664;SDS011;9980;51.020;7.772;2023-06-10T05:53:57;10.53;;;9.53;;
19664;SDS011;9980;51.020;7.772;2023-06-10T05:56:24;11.40;;;10.23;;
19664;SDS011;9980;51.020;7.772;2023-06-10T05:58:52;9.83;;;9.03;;
19664;SDS011;9980;51.020;7.772;2023-06-10T06:01:19;9.47;;;8.67;;
19664;SDS011;9980;51.020;7.772;2023-06-10T06:03:46;9.73;;;8.83;;
19664;SDS011;9980;51.020;7.772;2023-06-10T06:06:13;8.83;;;8.03;;
19664;SDS011;9980;51.020;7.772;2023-06-10T06:08:40;8.73;;;7.93;;
19664;SDS011;9980;51.020;7.772;2023-06-10T06:11:07;9.33;;;8.43;;
19664;SDS011;9980;51.020;7.772;2023-06-10T06:13:34;8.93;;;8.00;;
19664;SDS011;9980;51.020;7.772;2023-06-10T06:16:01;7.67;;;7.07;;
19664;SDS011;9980;51.020;7.772;2023-06-10T06:18:27;9.50;;;8.50;;
19664;SDS011;9980;51.020;7.772;2023-06-10T06:20:54;9.33;;;8.47;;
19664;SDS011;9980;51.020;7.772;2023-06-10T06:23:21;8.57;;;7.07;;
19664;SDS011;9980;51.020;7.772;2023-06-10T06:25:48;7.83;;;7.13;;
19664;SDS011;9980;51.020;7.772;2023-06-10T06:28:15;8.83;;;8.00;;
19664;SDS011;9980;51.020;7.772;2023-06-10T06:30:42;7.67;;;7.07;;
19664;SDS011;9980;51.020;7.772;2023-06-10T06:33:09;7.77;;;7.00;;
19664;SDS011;9980;51.020;7.772;2023-06-10T06:35:37;7.77;;;7.07;;
19664;SDS011;9980;51.020;7.772;2023-06-10T06:38:04;7.23;;;6.63;;
19664;SDS011;9980;51.020;7.772;2023-06-10T06:40:32;6.80;;;6.20;;
19664;SDS011;9980;51.020;7.772;2023-06-10T06:42:59;7.47;;;6.87;;
19664;SDS011;9980;51.020;7.772;2023-06-10T06:45:49;6.87;;;6.27;;
19664;SDS011;9980;51.020;7.772;2023-06-10T06:48:16;7.27;;;6.50;;
19664;SDS011;9980;51.020;7.772;2023-06-10T06:50:43;7.90;;;6.80;;
19664;SDS011;9980;51.020;7.772;2023-06-10T06:53:10;7.50;;;6.70;;
19664;SDS011;9980;51.020;7.772;2023-06-10T06:55:37;7.47;;;6.78;;
19664;SDS011;9980;51.020;7.772;2023-06-10T06:58:05;7.40;;;6.32;;
19664;SDS011;9980;51.020;7.772;2023-06-10T07:00:32;6.55;;;5.95;;
19664;SDS011;9980;51.020;7.772;2023-06-10T07:02:59;6.50;;;5.88;;
19664;SDS011;9980;51.020;7.772;2023-06-10T07:05:26;7.43;;;6.72;;
19664;SDS011;9980;51.020;7.772;2023-06-10T07:07:54;6.70;;;6.10;;
19664;SDS011;9980;51.020;7.772;2023-06-10T07:10:25;9.77;;;6.28;;
19664;SDS011;9980;51.020;7.772;2023-06-10T07:12:54;7.45;;;6.10;;
19664;SDS011;9980;51.020;7.772;2023-06-10T07:15:21;7.80;;;6.80;;
19664;SDS011;9980;51.020;7.772;2023-06-10T07:17:54;8.50;;;6.22;;
19664;SDS011;9980;51.020;7.772;2023-06-10T07:20:22;7.57;;;6.80;;
19664;SDS011;9980;51.020;7.772;2023-06-10T07:22:48;7.68;;;6.60;;
19664;SDS011;9980;51.020;7.772;2023-06-10T07:25:15;6.97;;;6.28;;
19664;SDS011;9980;51.020;7.772;2023-06-10T07:27:42;6.25;;;5.75;;
19664;SDS011;9980;51.020;7.772;2023-06-10T07:30:09;6.78;;;6.07;;
19664;SDS011;9980;51.020;7.772;2023-06-10T07:32:37;13.27;;;5.68;;
19664;SDS011;9980;51.020;7.772;2023-06-10T07:35:07;7.82;;;5.97;;
19664;SDS011;9980;51.020;7.772;2023-06-10T07:37:37;6.97;;;6.25;;
19664;SDS011;9980;51.020;7.772;2023-06-10T07:40:04;9.75;;;6.63;;
19664;SDS011;9980;51.020;7.772;2023-06-10T07:42:33;8.02;;;6.53;;
19664;SDS011;9980;51.020;7.772;2023-06-10T07:45:02;6.75;;;6.05;;
19664;SDS011;9980;51.020;7.772;2023-06-10T07:47:30;8.18;;;6.20;;
19664;SDS011;9980;51.020;7.772;2023-06-10T07:50:00;7.97;;;6.55;;
19664;SDS011;9980;51.020;7.772;2023-06-10T07:52:27;7.05;;;6.35;;
19664;SDS011;9980;51.020;7.772;2023-06-10T07:54:54;6.32;;;5.82;;
19664;SDS011;9980;51.020;7.772;2023-06-10T07:57:21;7.10;;;6.40;;
19664;SDS011;9980;51.020;7.772;2023-06-10T07:59:48;7.78;;;6.22;;
19664;SDS011;9980;51.020;7.772;2023-06-10T08:02:15;7.03;;;6.32;;
19664;SDS011;9980;51.020;7.772;2023-06-10T08:04:42;8.10;;;6.45;;
19664;SDS011;9980;51.020;7.772;2023-06-10T08:07:09;6.93;;;6.32;;
19664;SDS011;9980;51.020;7.772;2023-06-10T08:09:36;9.82;;;5.78;;
19664;SDS011;9980;51.020;7.772;2023-06-10T08:12:03;7.88;;;6.47;;
19664;SDS011;9980;51.020;7.772;2023-06-10T08:14:35;6.35;;;5.85;;
19664;SDS011;9980;51.020;7.772;2023-06-10T08:17:03;6.85;;;6.10;;
19664;SDS011;9980;51.020;7.772;2023-06-10T08:19:32;7.15;;;6.47;;
19664;SDS011;9980;51.020;7.772;2023-06-10T08:21:59;6.97;;;6.28;;
19664;SDS011;9980;51.020;7.772;2023-06-10T08:24:25;6.50;;;6.00;;
19664;SDS011;9980;51.020;7.772;2023-06-10T08:26:53;7.78;;;6.45;;
19664;SDS011;9980;51.020;7.772;2023-06-10T08:29:21;11.27;;;6.38;;
19664;SDS011;9980;51.020;7.772;2023-06-10T08:31:49;6.68;;;6.07;;
19664;SDS011;9980;51.020;7.772;2023-06-10T08:34:16;6.57;;;5.90;;
19664;SDS011;9980;51.020;7.772;2023-06-10T08:36:43;8.25;;;6.45;;
19664;SDS011;9980;51.020;7.772;2023-06-10T08:39:11;7.10;;;6.40;;
19664;SDS011;9980;51.020;7.772;2023-06-10T08:41:42;7.18;;;6.57;;
19664;SDS011;9980;51.020;7.772;2023-06-10T08:46:56;8.30;;;5.85;;
19664;SDS011;9980;51.020;7.772;2023-06-10T08:49:27;6.97;;;5.80;;
19664;SDS011;9980;51.020;7.772;2023-06-10T08:52:04;7.25;;;5.82;;
19664;SDS011;9980;51.020;7.772;2023-06-10T08:54:33;6.40;;;5.90;;
19664;SDS011;9980;51.020;7.772;2023-06-10T08:57:05;13.93;;;6.30;;
19664;SDS011;9980;51.020;7.772;2023-06-10T08:59:32;6.20;;;5.70;;
19664;SDS011;9980;51.020;7.772;2023-06-10T09:02:00;7.53;;;5.55;;
19664;SDS011;9980;51.020;7.772;2023-06-10T09:04:30;5.60;;;5.20;;
19664;SDS011;9980;51.020;7.772;2023-06-10T09:06:57;6.57;;;5.78;;
19664;SDS011;9980;51.020;7.772;2023-06-10T09:09:26;9.18;;;5.95;;
19664;SDS011;9980;51.020;7.772;2023-06-10T09:11:56;7.03;;;5.25;;
19664;SDS011;9980;51.020;7.772;2023-06-10T09:14:25;5.40;;;4.97;;
19664;SDS011;9980;51.020;7.772;2023-06-10T09:16:52;6.30;;;4.95;;
19664;SDS011;9980;51.020;7.772;2023-06-10T09:19:23;6.95;;;5.30;;
19664;SDS011;9980;51.020;7.772;2023-06-10T09:21:54;8.60;;;5.30;;
19664;SDS011;9980;51.020;7.772;2023-06-10T09:24:24;7.55;;;5.47;;
19664;SDS011;9980;51.020;7.772;2023-06-10T09:27:04;9.57;;;5.80;;
19664;SDS011;9980;51.020;7.772;2023-06-10T09:29:53;5.97;;;5.22;;
19664;SDS011;9980;51.020;7.772;2023-06-10T09:32:21;6.53;;;5.10;;
19664;SDS011;9980;51.020;7.772;2023-06-10T09:34:48;7.97;;;5.50;;
19664;SDS011;9980;51.020;7.772;2023-06-10T09:37:20;11.52;;;5.05;;
19664;SDS011;9980;51.020;7.772;2023-06-10T09:40:11;8.35;;;5.07;;
19664;SDS011;9980;51.020;7.772;2023-06-10T09:42:38;5.10;;;4.55;;
19664;SDS011;9980;51.020;7.772;2023-06-10T09:45:06;8.00;;;4.35;;
19664;SDS011;9980;51.020;7.772;2023-06-10T09:47:33;5.55;;;4.97;;
19664;SDS011;9980;51.020;7.772;2023-06-10T09:50:01;7.50;;;4.80;;
19664;SDS011;9980;51.020;7.772;2023-06-10T09:52:29;5.30;;;4.85;;
19664;SDS011;9980;51.020;7.772;2023-06-10T09:55:00;6.57;;;5.18;;
19664;SDS011;9980;51.020;7.772;2023-06-10T09:57:32;5.35;;;4.35;;
19664;SDS011;9980;51.020;7.772;2023-06-10T10:00:06;4.85;;;4.40;;
19664;SDS011;9980;51.020;7.772;2023-06-10T10:05:16;5.35;;;4.63;;
19664;SDS011;9980;51.020;7.772;2023-06-10T10:07:48;4.93;;;4.53;;
19664;SDS011;9980;51.020;7.772;2023-06-10T10:10:17;7.43;;;4.97;;
19664;SDS011;9980;51.020;7.772;2023-06-10T10:12:50;4.85;;;4.45;;
19664;SDS011;9980;51.020;7.772;2023-06-10T10:15:23;5.20;;;4.30;;
19664;SDS011;9980;51.020;7.772;2023-06-10T10:18:09;7.40;;;4.88;;
19664;SDS011;9980;51.020;7.772;2023-06-10T10:20:46;5.15;;;4.43;;
19664;SDS011;9980;51.020;7.772;2023-06-10T10:23:19;4.78;;;4.38;;
19664;SDS011;9980;51.020;7.772;2023-06-10T10:25:55;5.00;;;4.47;;
19664;SDS011;9980;51.020;7.772;2023-06-10T10:28:36;5.32;;;4.82;;
19664;SDS011;9980;51.020;7.772;2023-06-10T10:31:12;4.68;;;4.28;;
19664;SDS011;9980;51.020;7.772;2023-06-10T10:33:54;4.90;;;4.40;;
19664;SDS011;9980;51.020;7.772;2023-06-10T10:36:26;4.82;;;4.40;;
19664;SDS011;9980;51.020;7.772;2023-06-10T10:38:54;4.40;;;4.10;;
19664;SDS011;9980;51.020;7.772;2023-06-10T10:41:22;6.35;;;5.10;;
19664;SDS011;9980;51.020;7.772;2023-06-10T10:43:52;6.05;;;4.70;;
19664;SDS011;9980;51.020;7.772;2023-06-10T10:46:20;9.20;;;4.78;;
19664;SDS011;9980;51.020;7.772;2023-06-10T10:48:50;10.52;;;4.97;;
19664;SDS011;9980;51.020;7.772;2023-06-10T10:51:21;6.03;;;4.32;;
19664;SDS011;9980;51.020;7.772;2023-06-10T10:54:09;4.55;;;4.13;;
19664;SDS011;9980;51.020;7.772;2023-06-10T10:56:39;5.78;;;4.75;;
19664;SDS011;9980;51.020;7.772;2023-06-10T10:59:06;5.57;;;4.57;;
19664;SDS011;9980;51.020;7.772;2023-06-10T11:01:41;5.35;;;4.85;;
19664;SDS011;9980;51.020;7.772;2023-06-10T11:04:13;4.85;;;4.38;;
19664;SDS011;9980;51.020;7.772;2023-06-10T11:06:54;4.78;;;4.38;;
19664;SDS011;9980;51.020;7.772;2023-06-10T11:09:32;4.80;;;4.28;;
19664;SDS011;9980;51.020;7.772;2023-06-10T11:11:59;4.55;;;3.85;;
19664;SDS011;9980;51.020;7.772;2023-06-10T11:14:26;4.85;;;4.45;;
19664;SDS011;9980;51.020;7.772;2023-06-10T11:16:58;5.65;;;4.22;;
19664;SDS011;9980;51.020;7.772;2023-06-10T11:19:36;4.82;;;4.30;;
19664;SDS011;9980;51.020;7.772;2023-06-10T11:22:05;6.13;;;3.75;;
19664;SDS011;9980;51.020;7.772;2023-06-10T11:24:33;4.88;;;4.47;;
19664;SDS011;9980;51.020;7.772;2023-06-10T11:32:30;4.82;;;4.18;;
19664;SDS011;9980;51.020;7.772;2023-06-10T11:35:02;5.03;;;4.30;;
19664;SDS011;9980;51.020;7.772;2023-06-10T11:37:30;6.82;;;4.57;;
19664;SDS011;9980;51.020;7.772;2023-06-10T11:39:57;4.85;;;4.30;;
19664;SDS011;9980;51.020;7.772;2023-06-10T11:42:25;4.07;;;3.67;;
19664;SDS011;9980;51.020;7.772;2023-06-10T11:44:53;11.95;;;4.30;;
19664;SDS011;9980;51.020;7.772;2023-06-10T11:47:21;5.82;;;4.03;;
19664;SDS011;9980;51.020;7.772;2023-06-10T11:49:57;5.03;;;3.70;;
19664;SDS011;9980;51.020;7.772;2023-06-10T11:52:31;6.03;;;4.28;;
19664;SDS011;9980;51.020;7.772;2023-06-10T11:55:00;4.03;;;3.72;;
19664;SDS011;9980;51.020;7.772;2023-06-10T11:57:27;9.77;;;3.90;;
19664;SDS011;9980;51.020;7.772;2023-06-10T11:59:54;4.13;;;3.83;;
19664;SDS011;9980;51.020;7.772;2023-06-10T12:02:21;5.80;;;4.10;;
19664;SDS011;9980;51.020;7.772;2023-06-10T12:04:48;6.20;;;4.57;;
19664;SDS011;9980;51.020;7.772;2023-06-10T12:07:19;5.07;;;4.13;;
19664;SDS011;9980;51.020;7.772;2023-06-10T12:09:52;4.60;;;4.20;;
19664;SDS011;9980;51.020;7.772;2023-06-10T12:12:44;6.10;;;4.30;;
19664;SDS011;9980;51.020;7.772;2023-06-10T12:15:11;4.95;;;4.05;;
19664;SDS011;9980;51.020;7.772;2023-06-10T12:17:51;4.28;;;3.88;;
19664;SDS011;9980;51.020;7.772;2023-06-10T12:20:25;4.28;;;3.97;;
19664;SDS011;9980;51.020;7.772;2023-06-10T12:22:55;4.32;;;4.03;;
19664;SDS011;9980;51.020;7.772;2023-06-10T12:25:25;6.68;;;4.10;;
19664;SDS011;9980;51.020;7.772;2023-06-10T12:27:57;4.75;;;4.35;;
19664;SDS011;9980;51.020;7.772;2023-06-10T12:30:26;4.50;;;4.10;;
19664;SDS011;9980;51.020;7.772;2023-06-10T12:32:54;8.25;;;4.47;;
19664;SDS011;9980;51.020;7.772;2023-06-10T12:35:22;4.68;;;4.18;;
19664;SDS011;9980;51.020;7.772;2023-06-10T12:37:55;4.78;;;4.38;;
19664;SDS011;9980;51.020;7.772;2023-06-10T12:40:32;4.15;;;3.85;;
19664;SDS011;9980;51.020;7.772;2023-06-10T12:43:02;4.53;;;4.20;;
19664;SDS011;9980;51.020;7.772;2023-06-10T12:45:30;5.20;;;4.70;;
19664;SDS011;9980;51.020;7.772;2023-06-10T12:48:10;4.88;;;4.45;;
19664;SDS011;9980;51.020;7.772;2023-06-10T12:50:49;4.75;;;4.25;;
19664;SDS011;9980;51.020;7.772;2023-06-10T12:53:23;4.70;;;4.00;;
19664;SDS011;9980;51.020;7.772;2023-06-10T12:55:52;4.57;;;4.18;;
19664;SDS011;9980;51.020;7.772;2023-06-10T12:58:20;4.40;;;4.00;;
19664;SDS011;9980;51.020;7.772;2023-06-10T13:00:48;4.88;;;4.50;;
19664;SDS011;9980;51.020;7.772;2023-06-10T13:03:19;4.55;;;4.15;;
19664;SDS011;9980;51.020;7.772;2023-06-10T13:05:46;5.18;;;4.70;;
19664;SDS011;9980;51.020;7.772;2023-06-10T13:08:14;4.97;;;4.22;;
19664;SDS011;9980;51.020;7.772;2023-06-10T13:10:41;4.78;;;3.88;;
19664;SDS011;9980;51.020;7.772;2023-06-10T13:13:08;9.30;;;4.72;;
19664;SDS011;9980;51.020;7.772;2023-06-10T13:15:36;4.68;;;4.28;;
19664;SDS011;9980;51.020;7.772;2023-06-10T13:18:09;4.55;;;4.22;;
19664;SDS011;9980;51.020;7.772;2023-06-10T13:20:36;5.45;;;4.10;;
19664;SDS011;9980;51.020;7.772;2023-06-10T13:23:03;5.07;;;4.57;;
19664;SDS011;9980;51.020;7.772;2023-06-10T13:25:29;7.60;;;4.20;;
19664;SDS011;9980;51.020;7.772;2023-06-10T13:27:56;5.13;;;4.55;;
19664;SDS011;9980;51.020;7.772;2023-06-10T13:30:25;4.60;;;4.20;;
19664;SDS011;9980;51.020;7.772;2023-06-10T13:32:53;5.20;;;4.70;;
19664;SDS011;9980;51.020;7.772;2023-06-10T13:35:20;5.13;;;3.88;;
19664;SDS011;9980;51.020;7.772;2023-06-10T13:37:46;6.50;;;4.20;;
19664;SDS011;9980;51.020;7.772;2023-06-10T13:40:14;6.10;;;4.43;;
19664;SDS011;9980;51.020;7.772;2023-06-10T13:42:41;4.30;;;3.90;;
19664;SDS011;9980;51.020;7.772;2023-06-10T13:45:08;6.07;;;4.18;;
19664;SDS011;9980;51.020;7.772;2023-06-10T13:47:36;4.50;;;4.10;;
19664;SDS011;9980;51.020;7.772;2023-06-10T13:50:04;7.63;;;3.88;;
19664;SDS011;9980;51.020;7.772;2023-06-10T13:52:32;5.00;;;4.05;;
19664;SDS011;9980;51.020;7.772;2023-06-10T13:54:59;4.63;;;4.22;;
19664;SDS011;9980;51.020;7.772;2023-06-10T13:57:26;4.60;;;4.13;;
19664;SDS011;9980;51.020;7.772;2023-06-10T13:59:53;5.13;;;4.15;;
19664;SDS011;9980;51.020;7.772;2023-06-10T14:02:22;6.28;;;4.10;;
19664;SDS011;9980;51.020;7.772;2023-06-10T14:04:49;10.15;;;4.10;;
19664;SDS011;9980;51.020;7.772;2023-06-10T14:07:16;6.47;;;3.63;;
19664;SDS011;9980;51.020;7.772;2023-06-10T14:09:43;5.80;;;4.00;;
19664;SDS011;9980;51.020;7.772;2023-06-10T14:12:10;5.70;;;3.92;;
19664;SDS011;9980;51.020;7.772;2023-06-10T14:14:37;4.82;;;3.40;;
19664;SDS011;9980;51.020;7.772;2023-06-10T14:17:04;6.95;;;4.10;;
19664;SDS011;9980;51.020;7.772;2023-06-10T14:19:31;4.00;;;3.58;;
19664;SDS011;9980;51.020;7.772;2023-06-10T14:21:58;5.90;;;3.60;;
19664;SDS011;9980;51.020;7.772;2023-06-10T14:24:25;4.25;;;3.42;;
19664;SDS011;9980;51.020;7.772;2023-06-10T14:26:53;4.13;;;3.72;;
19664;SDS011;9980;51.020;7.772;2023-06-10T14:29:21;4.22;;;3.80;;
19664;SDS011;9980;51.020;7.772;2023-06-10T14:31:48;3.53;;;3.22;;
19664;SDS011;9980;51.020;7.772;2023-06-10T14:34:15;4.47;;;3.50;;
19664;SDS011;9980;51.020;7.772;2023-06-10T14:36:42;4.25;;;3.50;;
19664;SDS011;9980;51.020;7.772;2023-06-10T14:39:09;3.63;;;3.33;;
19664;SDS011;9980;51.020;7.772;2023-06-10T14:41:38;4.65;;;3.95;;
19664;SDS011;9980;51.020;7.772;2023-06-10T14:44:05;4.57;;;3.78;;
19664;SDS011;9980;51.020;7.772;2023-06-10T14:46:32;6.28;;;3.63;;
19664;SDS011;9980;51.020;7.772;2023-06-10T14:48:59;3.75;;;3.45;;
19664;SDS011;9980;51.020;7.772;2023-06-10T14:51:28;4.10;;;3.70;;
19664;SDS011;9980;51.020;7.772;2023-06-10T14:53:55;4.78;;;4.25;;
19664;SDS011;9980;51.020;7.772;2023-06-10T14:56:22;4.68;;;4.00;;
19664;SDS011;9980;51.020;7.772;2023-06-10T14:58:49;7.30;;;3.60;;
19664;SDS011;9980;51.020;7.772;2023-06-10T15:01:16;5.15;;;3.80;;
19664;SDS011;9980;51.020;7.772;2023-06-10T15:03:44;3.90;;;3.60;;
19664;SDS011;9980;51.020;7.772;2023-06-10T15:06:11;4.32;;;3.88;;
19664;SDS011;9980;51.020;7.772;2023-06-10T15:08:38;5.45;;;4.03;;
19664;SDS011;9980;51.020;7.772;2023-06-10T15:11:05;4.57;;;3.90;;
19664;SDS011;9980;51.020;7.772;2023-06-10T15:13:32;4.68;;;4.20;;
19664;SDS011;9980;51.020;7.772;2023-06-10T15:15:59;4.28;;;3.83;;
19664;SDS011;9980;51.020;7.772;2023-06-10T15:18:29;5.38;;;3.88;;
19664;SDS011;9980;51.020;7.772;2023-06-10T15:20:56;4.45;;;4.15;;